sensor_id;sensor_type;location;lat;lon;timestamp;P1;durP1;ratioP1;P2;durP2;ratioP2
41139;SDS011;26881;48.784;9.192;2023-02-28T00:03:50;5.53;;;2.50;;
41139;SDS011;26881;48.784;9.192;2023-02-28T00:09:12;3.07;;;2.20;;
41139;SDS011;26881;48.784;9.192;2023-02-28T00:14:34;4.43;;;2.20;;
41139;SDS011;26881;48.784;9.192;2023-02-28T00:19:55;4.07;;;2.40;;
41139;SDS011;26881;48.784;9.192;2023-02-28T00:25:19;5.23;;;2.80;;
41139;SDS011;26881;48.784;9.192;2023-02-28T00:30:45;3.90;;;2.63;;
41139;SDS011;26881;48.784;9.192;2023-02-28T00:36:08;5.13;;;2.80;;
41139;SDS011;26881;48.784;9.192;2023-02-28T00:41:31;5.13;;;2.50;;
41139;SDS011;26881;48.784;9.192;2023-02-28T00:46:53;3.10;;;2.27;;
41139;SDS011;26881;48.784;9.192;2023-02-28T00:52:15;4.13;;;2.30;;
41139;SDS011;26881;48.784;9.192;2023-02-28T00:57:37;4.23;;;2.50;;
41139;SDS011;26881;48.784;9.192;2023-02-28T01:02:59;3.33;;;2.50;;
41139;SDS011;26881;48.784;9.192;2023-02-28T01:08:21;4.90;;;2.60;;
41139;SDS011;26881;48.784;9.192;2023-02-28T01:13:44;3.60;;;2.57;;
41139;SDS011;26881;48.784;9.192;2023-02-28T01:19:07;3.70;;;2.63;;
41139;SDS011;26881;48.784;9.192;2023-02-28T01:24:29;5.23;;;2.97;;
41139;SDS011;26881;48.784;9.192;2023-02-28T01:29:52;3.90;;;2.37;;
41139;SDS011;26881;48.784;9.192;2023-02-28T01:35:14;5.03;;;2.73;;
41139;SDS011;26881;48.784;9.192;2023-02-28T01:40:36;3.63;;;2.50;;
41139;SDS011;26881;48.784;9.192;2023-02-28T01:45:58;4.17;;;3.03;;
41139;SDS011;26881;48.784;9.192;2023-02-28T01:51:22;5.17;;;2.87;;
41139;SDS011;26881;48.784;9.192;2023-02-28T01:56:57;4.60;;;2.80;;
41139;SDS011;26881;48.784;9.192;2023-02-28T02:02:22;5.53;;;2.83;;
41139;SDS011;26881;48.784;9.192;2023-02-28T02:07:46;3.43;;;3.00;;
41139;SDS011;26881;48.784;9.192;2023-02-28T02:13:19;3.77;;;2.83;;
41139;SDS011;26881;48.784;9.192;2023-02-28T02:19:14;4.90;;;2.73;;
41139;SDS011;26881;48.784;9.192;2023-02-28T02:30:14;4.63;;;3.10;;
41139;SDS011;26881;48.784;9.192;2023-02-28T02:41:24;5.63;;;3.47;;
41139;SDS011;26881;48.784;9.192;2023-02-28T02:46:47;7.40;;;3.57;;
41139;SDS011;26881;48.784;9.192;2023-02-28T02:52:12;4.47;;;3.40;;
41139;SDS011;26881;48.784;9.192;2023-02-28T02:57:45;5.93;;;3.47;;
41139;SDS011;26881;48.784;9.192;2023-02-28T03:03:13;4.87;;;3.23;;
41139;SDS011;26881;48.784;9.192;2023-02-28T03:08:38;6.73;;;3.23;;
41139;SDS011;26881;48.784;9.192;2023-02-28T03:19:44;5.53;;;3.03;;
41139;SDS011;26881;48.784;9.192;2023-02-28T03:25:16;8.10;;;3.53;;
41139;SDS011;26881;48.784;9.192;2023-02-28T03:31:03;3.47;;;3.13;;
41139;SDS011;26881;48.784;9.192;2023-02-28T03:36:43;8.40;;;3.80;;
41139;SDS011;26881;48.784;9.192;2023-02-28T03:42:13;5.00;;;3.73;;
41139;SDS011;26881;48.784;9.192;2023-02-28T03:47:47;8.70;;;3.70;;
41139;SDS011;26881;48.784;9.192;2023-02-28T03:53:15;5.50;;;3.47;;
41139;SDS011;26881;48.784;9.192;2023-02-28T03:59:12;4.87;;;4.07;;
41139;SDS011;26881;48.784;9.192;2023-02-28T04:04:40;5.60;;;3.77;;
41139;SDS011;26881;48.784;9.192;2023-02-28T04:10:06;7.33;;;4.03;;
41139;SDS011;26881;48.784;9.192;2023-02-28T04:15:28;6.53;;;3.70;;
41139;SDS011;26881;48.784;9.192;2023-02-28T04:20:50;6.30;;;4.47;;
41139;SDS011;26881;48.784;9.192;2023-02-28T04:26:12;7.13;;;4.00;;
41139;SDS011;26881;48.784;9.192;2023-02-28T04:31:34;7.90;;;4.07;;
41139;SDS011;26881;48.784;9.192;2023-02-28T04:36:55;9.53;;;4.20;;
41139;SDS011;26881;48.784;9.192;2023-02-28T04:42:33;12.50;;;4.70;;
41139;SDS011;26881;48.784;9.192;2023-02-28T04:47:56;6.27;;;4.43;;
41139;SDS011;26881;48.784;9.192;2023-02-28T04:53:18;6.73;;;4.37;;
41139;SDS011;26881;48.784;9.192;2023-02-28T04:58:41;6.17;;;4.57;;
41139;SDS011;26881;48.784;9.192;2023-02-28T05:04:04;6.13;;;4.30;;
41139;SDS011;26881;48.784;9.192;2023-02-28T05:09:26;6.03;;;4.50;;
41139;SDS011;26881;48.784;9.192;2023-02-28T05:14:48;7.23;;;4.60;;
41139;SDS011;26881;48.784;9.192;2023-02-28T05:20:10;6.53;;;4.53;;
41139;SDS011;26881;48.784;9.192;2023-02-28T05:25:40;7.00;;;4.27;;
41139;SDS011;26881;48.784;9.192;2023-02-28T05:31:02;7.70;;;4.97;;
41139;SDS011;26881;48.784;9.192;2023-02-28T05:36:23;7.10;;;4.47;;
41139;SDS011;26881;48.784;9.192;2023-02-28T05:41:45;5.60;;;4.67;;
41139;SDS011;26881;48.784;9.192;2023-02-28T05:47:07;14.60;;;8.47;;
41139;SDS011;26881;48.784;9.192;2023-02-28T05:52:29;7.33;;;5.03;;
41139;SDS011;26881;48.784;9.192;2023-02-28T05:57:53;8.17;;;5.27;;
41139;SDS011;26881;48.784;9.192;2023-02-28T06:03:15;6.70;;;5.17;;
41139;SDS011;26881;48.784;9.192;2023-02-28T06:08:37;10.70;;;6.20;;
41139;SDS011;26881;48.784;9.192;2023-02-28T06:13:59;7.53;;;4.90;;
41139;SDS011;26881;48.784;9.192;2023-02-28T06:19:22;7.97;;;5.67;;
41139;SDS011;26881;48.784;9.192;2023-02-28T06:24:47;8.20;;;5.57;;
41139;SDS011;26881;48.784;9.192;2023-02-28T06:30:09;11.17;;;6.13;;
41139;SDS011;26881;48.784;9.192;2023-02-28T06:35:32;10.03;;;5.47;;
41139;SDS011;26881;48.784;9.192;2023-02-28T06:40:54;8.50;;;5.97;;
41139;SDS011;26881;48.784;9.192;2023-02-28T06:46:17;7.80;;;5.67;;
41139;SDS011;26881;48.784;9.192;2023-02-28T06:51:42;7.70;;;6.00;;
41139;SDS011;26881;48.784;9.192;2023-02-28T06:57:06;10.83;;;5.80;;
41139;SDS011;26881;48.784;9.192;2023-02-28T07:02:28;8.60;;;6.10;;
41139;SDS011;26881;48.784;9.192;2023-02-28T07:07:50;7.10;;;5.70;;
41139;SDS011;26881;48.784;9.192;2023-02-28T07:13:14;9.20;;;6.10;;
41139;SDS011;26881;48.784;9.192;2023-02-28T07:18:36;10.10;;;6.43;;
41139;SDS011;26881;48.784;9.192;2023-02-28T07:23:58;9.17;;;6.47;;
41139;SDS011;26881;48.784;9.192;2023-02-28T07:29:20;8.27;;;6.30;;
41139;SDS011;26881;48.784;9.192;2023-02-28T07:34:42;9.10;;;6.50;;
41139;SDS011;26881;48.784;9.192;2023-02-28T07:40:05;9.47;;;6.70;;
41139;SDS011;26881;48.784;9.192;2023-02-28T07:45:32;10.23;;;6.77;;
41139;SDS011;26881;48.784;9.192;2023-02-28T07:50:56;10.93;;;6.27;;
41139;SDS011;26881;48.784;9.192;2023-02-28T07:56:18;10.03;;;6.90;;
41139;SDS011;26881;48.784;9.192;2023-02-28T08:01:40;10.50;;;7.57;;
41139;SDS011;26881;48.784;9.192;2023-02-28T08:07:02;9.73;;;7.30;;
41139;SDS011;26881;48.784;9.192;2023-02-28T08:12:24;13.23;;;7.13;;
41139;SDS011;26881;48.784;9.192;2023-02-28T08:17:45;10.10;;;7.90;;
41139;SDS011;26881;48.784;9.192;2023-02-28T08:23:07;9.93;;;7.37;;
41139;SDS011;26881;48.784;9.192;2023-02-28T08:28:29;12.23;;;7.83;;
41139;SDS011;26881;48.784;9.192;2023-02-28T08:33:51;10.37;;;8.20;;
41139;SDS011;26881;48.784;9.192;2023-02-28T08:39:14;12.23;;;7.80;;
41139;SDS011;26881;48.784;9.192;2023-02-28T08:44:36;11.03;;;7.90;;
41139;SDS011;26881;48.784;9.192;2023-02-28T08:49:58;9.90;;;8.37;;
41139;SDS011;26881;48.784;9.192;2023-02-28T08:55:19;8.70;;;7.73;;
41139;SDS011;26881;48.784;9.192;2023-02-28T09:00:41;10.37;;;7.53;;
41139;SDS011;26881;48.784;9.192;2023-02-28T09:06:03;10.90;;;8.13;;
41139;SDS011;26881;48.784;9.192;2023-02-28T09:11:26;31.60;;;9.67;;
41139;SDS011;26881;48.784;9.192;2023-02-28T09:16:48;13.27;;;8.10;;
41139;SDS011;26881;48.784;9.192;2023-02-28T09:22:10;10.20;;;8.00;;
41139;SDS011;26881;48.784;9.192;2023-02-28T09:27:32;10.43;;;8.20;;
41139;SDS011;26881;48.784;9.192;2023-02-28T09:32:54;11.03;;;8.20;;
41139;SDS011;26881;48.784;9.192;2023-02-28T09:38:16;11.43;;;7.90;;
41139;SDS011;26881;48.784;9.192;2023-02-28T09:43:40;10.47;;;7.53;;
41139;SDS011;26881;48.784;9.192;2023-02-28T09:49:06;10.90;;;8.47;;
41139;SDS011;26881;48.784;9.192;2023-02-28T09:54:33;14.13;;;8.80;;
41139;SDS011;26881;48.784;9.192;2023-02-28T10:05:33;12.03;;;9.07;;
41139;SDS011;26881;48.784;9.192;2023-02-28T10:11:06;11.03;;;8.37;;
41139;SDS011;26881;48.784;9.192;2023-02-28T10:16:51;11.70;;;8.60;;
41139;SDS011;26881;48.784;9.192;2023-02-28T10:22:24;15.37;;;8.87;;
41139;SDS011;26881;48.784;9.192;2023-02-28T10:27:54;11.37;;;8.80;;
41139;SDS011;26881;48.784;9.192;2023-02-28T10:33:28;13.03;;;8.40;;
41139;SDS011;26881;48.784;9.192;2023-02-28T10:38:55;13.07;;;8.50;;
41139;SDS011;26881;48.784;9.192;2023-02-28T10:44:19;10.50;;;8.43;;
41139;SDS011;26881;48.784;9.192;2023-02-28T10:49:49;15.67;;;8.73;;
41139;SDS011;26881;48.784;9.192;2023-02-28T10:55:20;10.33;;;8.67;;
41139;SDS011;26881;48.784;9.192;2023-02-28T11:00:46;14.33;;;8.67;;
41139;SDS011;26881;48.784;9.192;2023-02-28T11:06:13;12.73;;;9.10;;
41139;SDS011;26881;48.784;9.192;2023-02-28T11:11:42;11.63;;;9.30;;
41139;SDS011;26881;48.784;9.192;2023-02-28T11:17:40;11.37;;;8.83;;
41139;SDS011;26881;48.784;9.192;2023-02-28T11:22:57;12.70;;;8.87;;
41139;SDS011;26881;48.784;9.192;2023-02-28T11:28:27;9.87;;;7.90;;
41139;SDS011;26881;48.784;9.192;2023-02-28T11:33:55;14.17;;;9.13;;
41139;SDS011;26881;48.784;9.192;2023-02-28T11:39:17;12.50;;;8.77;;
41139;SDS011;26881;48.784;9.192;2023-02-28T12:13:27;10.23;;;8.10;;
41139;SDS011;26881;48.784;9.192;2023-02-28T12:19:06;10.53;;;8.57;;
41139;SDS011;26881;48.784;9.192;2023-02-28T12:30:35;12.80;;;7.93;;
41139;SDS011;26881;48.784;9.192;2023-02-28T12:36:03;10.53;;;8.37;;
41139;SDS011;26881;48.784;9.192;2023-02-28T12:47:03;10.63;;;8.70;;
41139;SDS011;26881;48.784;9.192;2023-02-28T12:58:37;9.13;;;7.80;;
41139;SDS011;26881;48.784;9.192;2023-02-28T13:09:56;13.17;;;8.50;;
41139;SDS011;26881;48.784;9.192;2023-02-28T13:15:27;11.37;;;8.30;;
41139;SDS011;26881;48.784;9.192;2023-02-28T13:20:50;10.57;;;8.17;;
41139;SDS011;26881;48.784;9.192;2023-02-28T13:26:12;14.20;;;7.80;;
41139;SDS011;26881;48.784;9.192;2023-02-28T13:32:08;9.37;;;7.97;;
41139;SDS011;26881;48.784;9.192;2023-02-28T13:42:51;9.77;;;8.23;;
41139;SDS011;26881;48.784;9.192;2023-02-28T13:48:20;10.10;;;8.00;;
41139;SDS011;26881;48.784;9.192;2023-02-28T13:54:01;13.07;;;8.30;;
41139;SDS011;26881;48.784;9.192;2023-02-28T13:59:37;11.10;;;7.97;;
41139;SDS011;26881;48.784;9.192;2023-02-28T14:05:14;10.23;;;7.37;;
41139;SDS011;26881;48.784;9.192;2023-02-28T14:10:42;13.93;;;8.40;;
41139;SDS011;26881;48.784;9.192;2023-02-28T14:16:07;10.70;;;7.93;;
41139;SDS011;26881;48.784;9.192;2023-02-28T14:21:34;9.10;;;7.90;;
41139;SDS011;26881;48.784;9.192;2023-02-28T14:27:07;11.50;;;7.70;;
41139;SDS011;26881;48.784;9.192;2023-02-28T14:38:21;17.00;;;7.73;;
41139;SDS011;26881;48.784;9.192;2023-02-28T14:43:51;9.87;;;7.43;;
41139;SDS011;26881;48.784;9.192;2023-02-28T14:49:24;8.90;;;7.40;;
41139;SDS011;26881;48.784;9.192;2023-02-28T14:54:53;11.23;;;7.50;;
41139;SDS011;26881;48.784;9.192;2023-02-28T15:00:27;8.80;;;7.60;;
41139;SDS011;26881;48.784;9.192;2023-02-28T15:05:55;9.80;;;7.33;;
41139;SDS011;26881;48.784;9.192;2023-02-28T15:11:19;9.70;;;8.27;;
41139;SDS011;26881;48.784;9.192;2023-02-28T15:16:43;11.47;;;7.77;;
41139;SDS011;26881;48.784;9.192;2023-02-28T15:22:11;10.45;;;7.35;;
41139;SDS011;26881;48.784;9.192;2023-02-28T15:27:40;11.25;;;8.13;;
41139;SDS011;26881;48.784;9.192;2023-02-28T15:38:35;10.40;;;7.18;;
41139;SDS011;26881;48.784;9.192;2023-02-28T15:44:13;10.75;;;8.68;;
41139;SDS011;26881;48.784;9.192;2023-02-28T15:49:58;20.33;;;10.73;;
41139;SDS011;26881;48.784;9.192;2023-02-28T15:55:23;11.87;;;9.03;;
41139;SDS011;26881;48.784;9.192;2023-02-28T16:00:59;10.93;;;7.83;;
41139;SDS011;26881;48.784;9.192;2023-02-28T16:11:59;10.87;;;8.27;;
41139;SDS011;26881;48.784;9.192;2023-02-28T16:17:27;10.93;;;8.60;;
41139;SDS011;26881;48.784;9.192;2023-02-28T16:22:51;12.77;;;8.83;;
41139;SDS011;26881;48.784;9.192;2023-02-28T16:28:20;11.97;;;8.67;;
41139;SDS011;26881;48.784;9.192;2023-02-28T16:33:47;9.57;;;8.57;;
41139;SDS011;26881;48.784;9.192;2023-02-28T16:39:09;10.73;;;8.33;;
41139;SDS011;26881;48.784;9.192;2023-02-28T16:44:31;10.27;;;7.97;;
41139;SDS011;26881;48.784;9.192;2023-02-28T16:49:55;11.23;;;9.50;;
41139;SDS011;26881;48.784;9.192;2023-02-28T16:55:18;10.50;;;8.70;;
41139;SDS011;26881;48.784;9.192;2023-02-28T17:00:40;11.27;;;8.60;;
41139;SDS011;26881;48.784;9.192;2023-02-28T17:06:03;15.23;;;8.53;;
41139;SDS011;26881;48.784;9.192;2023-02-28T17:11:26;13.80;;;9.10;;
41139;SDS011;26881;48.784;9.192;2023-02-28T17:16:48;13.70;;;9.03;;
41139;SDS011;26881;48.784;9.192;2023-02-28T17:22:10;14.53;;;10.30;;
41139;SDS011;26881;48.784;9.192;2023-02-28T17:27:32;12.03;;;9.30;;
41139;SDS011;26881;48.784;9.192;2023-02-28T17:32:55;19.03;;;9.90;;
41139;SDS011;26881;48.784;9.192;2023-02-28T17:38:18;17.27;;;9.97;;
41139;SDS011;26881;48.784;9.192;2023-02-28T17:43:40;13.33;;;10.17;;
41139;SDS011;26881;48.784;9.192;2023-02-28T17:49:02;13.67;;;9.83;;
41139;SDS011;26881;48.784;9.192;2023-02-28T17:54:24;13.60;;;9.33;;
41139;SDS011;26881;48.784;9.192;2023-02-28T17:59:46;14.97;;;11.17;;
41139;SDS011;26881;48.784;9.192;2023-02-28T18:05:08;14.47;;;11.20;;
41139;SDS011;26881;48.784;9.192;2023-02-28T18:10:31;19.07;;;14.00;;
41139;SDS011;26881;48.784;9.192;2023-02-28T18:15:54;18.20;;;13.63;;
41139;SDS011;26881;48.784;9.192;2023-02-28T18:21:16;21.43;;;13.60;;
41139;SDS011;26881;48.784;9.192;2023-02-28T18:26:38;19.83;;;13.33;;
41139;SDS011;26881;48.784;9.192;2023-02-28T18:32:01;20.50;;;12.97;;
41139;SDS011;26881;48.784;9.192;2023-02-28T18:37:23;17.10;;;11.90;;
41139;SDS011;26881;48.784;9.192;2023-02-28T18:42:44;16.00;;;12.63;;
41139;SDS011;26881;48.784;9.192;2023-02-28T18:48:06;21.27;;;13.57;;
41139;SDS011;26881;48.784;9.192;2023-02-28T18:53:28;26.30;;;15.00;;
41139;SDS011;26881;48.784;9.192;2023-02-28T18:58:50;21.60;;;14.33;;
41139;SDS011;26881;48.784;9.192;2023-02-28T19:04:13;22.83;;;15.57;;
41139;SDS011;26881;48.784;9.192;2023-02-28T19:09:35;26.40;;;13.80;;
41139;SDS011;26881;48.784;9.192;2023-02-28T19:14:57;22.83;;;14.33;;
41139;SDS011;26881;48.784;9.192;2023-02-28T19:20:19;20.60;;;14.03;;
41139;SDS011;26881;48.784;9.192;2023-02-28T19:25:41;17.67;;;13.70;;
41139;SDS011;26881;48.784;9.192;2023-02-28T19:31:04;21.17;;;15.53;;
41139;SDS011;26881;48.784;9.192;2023-02-28T19:36:32;21.43;;;15.13;;
41139;SDS011;26881;48.784;9.192;2023-02-28T19:41:54;23.30;;;15.33;;
41139;SDS011;26881;48.784;9.192;2023-02-28T19:47:16;18.67;;;14.60;;
41139;SDS011;26881;48.784;9.192;2023-02-28T19:52:38;18.03;;;14.10;;
41139;SDS011;26881;48.784;9.192;2023-02-28T19:58:05;21.33;;;14.73;;
41139;SDS011;26881;48.784;9.192;2023-02-28T20:03:27;21.07;;;14.80;;
41139;SDS011;26881;48.784;9.192;2023-02-28T20:08:48;26.10;;;16.13;;
41139;SDS011;26881;48.784;9.192;2023-02-28T20:14:11;26.37;;;14.60;;
41139;SDS011;26881;48.784;9.192;2023-02-28T20:19:38;19.40;;;15.03;;
41139;SDS011;26881;48.784;9.192;2023-02-28T20:25:00;23.47;;;15.03;;
41139;SDS011;26881;48.784;9.192;2023-02-28T20:30:22;23.43;;;15.37;;
41139;SDS011;26881;48.784;9.192;2023-02-28T20:35:44;22.93;;;15.30;;
41139;SDS011;26881;48.784;9.192;2023-02-28T20:41:06;20.60;;;15.13;;
41139;SDS011;26881;48.784;9.192;2023-02-28T20:46:29;23.63;;;15.87;;
41139;SDS011;26881;48.784;9.192;2023-02-28T20:51:52;20.90;;;15.53;;
41139;SDS011;26881;48.784;9.192;2023-02-28T20:57:14;22.17;;;15.47;;
41139;SDS011;26881;48.784;9.192;2023-02-28T21:02:36;24.60;;;15.83;;
41139;SDS011;26881;48.784;9.192;2023-02-28T21:07:57;23.20;;;16.17;;
41139;SDS011;26881;48.784;9.192;2023-02-28T21:13:19;20.77;;;15.90;;
41139;SDS011;26881;48.784;9.192;2023-02-28T21:18:41;19.70;;;14.57;;
41139;SDS011;26881;48.784;9.192;2023-02-28T21:24:04;19.27;;;14.27;;
41139;SDS011;26881;48.784;9.192;2023-02-28T21:29:26;20.03;;;14.17;;
41139;SDS011;26881;48.784;9.192;2023-02-28T21:34:48;21.47;;;15.17;;
41139;SDS011;26881;48.784;9.192;2023-02-28T21:40:10;23.53;;;15.37;;
41139;SDS011;26881;48.784;9.192;2023-02-28T21:45:33;19.37;;;13.37;;
41139;SDS011;26881;48.784;9.192;2023-02-28T21:50:57;22.77;;;14.40;;
41139;SDS011;26881;48.784;9.192;2023-02-28T21:56:22;19.90;;;14.90;;
41139;SDS011;26881;48.784;9.192;2023-02-28T22:01:45;20.23;;;15.17;;
41139;SDS011;26881;48.784;9.192;2023-02-28T22:07:11;21.80;;;15.40;;
41139;SDS011;26881;48.784;9.192;2023-02-28T22:12:33;19.57;;;15.30;;
41139;SDS011;26881;48.784;9.192;2023-02-28T22:17:54;19.87;;;14.57;;
41139;SDS011;26881;48.784;9.192;2023-02-28T22:23:16;19.67;;;15.13;;
41139;SDS011;26881;48.784;9.192;2023-02-28T22:28:38;21.73;;;14.70;;
41139;SDS011;26881;48.784;9.192;2023-02-28T22:34:02;21.17;;;14.60;;
41139;SDS011;26881;48.784;9.192;2023-02-28T22:39:29;22.93;;;17.40;;
41139;SDS011;26881;48.784;9.192;2023-02-28T22:44:50;22.80;;;15.53;;
41139;SDS011;26881;48.784;9.192;2023-02-28T22:50:12;19.70;;;14.03;;
41139;SDS011;26881;48.784;9.192;2023-02-28T22:55:34;22.57;;;15.13;;
41139;SDS011;26881;48.784;9.192;2023-02-28T23:01:03;21.60;;;14.80;;
41139;SDS011;26881;48.784;9.192;2023-02-28T23:06:33;23.27;;;15.40;;
41139;SDS011;26881;48.784;9.192;2023-02-28T23:12:02;20.83;;;14.33;;
41139;SDS011;26881;48.784;9.192;2023-02-28T23:17:24;24.83;;;15.07;;
41139;SDS011;26881;48.784;9.192;2023-02-28T23:22:46;20.50;;;14.23;;
41139;SDS011;26881;48.784;9.192;2023-02-28T23:28:10;23.93;;;14.80;;
41139;SDS011;26881;48.784;9.192;2023-02-28T23:33:32;22.33;;;15.33;;
41139;SDS011;26881;48.784;9.192;2023-02-28T23:38:54;24.10;;;15.87;;
41139;SDS011;26881;48.784;9.192;2023-02-28T23:44:16;23.57;;;15.30;;
41139;SDS011;26881;48.784;9.192;2023-02-28T23:49:38;21.20;;;14.47;;
41139;SDS011;26881;48.784;9.192;2023-02-28T23:55:00;22.07;;;14.27;;
